createdAt,value
2022-09-17T00:00:29.808Z,99.90
2022-09-17T00:02:56.963Z,99.90
2022-09-17T00:05:24.216Z,99.90
2022-09-17T00:07:52.636Z,99.90
2022-09-17T00:10:20.903Z,99.90
2022-09-17T00:12:48.510Z,99.90
2022-09-17T00:15:15.995Z,99.90
2022-09-17T00:17:44.534Z,99.90
2022-09-17T00:20:11.557Z,99.90
2022-09-17T00:22:38.563Z,99.90
2022-09-17T00:25:06.511Z,99.90
2022-09-17T00:27:33.456Z,99.90
2022-09-17T00:30:00.504Z,99.90
2022-09-17T00:32:27.523Z,99.90
2022-09-17T00:34:56.359Z,99.90
2022-09-17T00:37:23.596Z,99.90
2022-09-17T00:39:50.513Z,99.90
2022-09-17T00:42:18.976Z,99.90
2022-09-17T00:44:49.651Z,99.90
2022-09-17T00:47:22.408Z,99.90
2022-09-17T00:49:53.926Z,99.90
2022-09-17T00:52:25.800Z,99.90
2022-09-17T00:54:57.914Z,99.90
2022-09-17T00:57:25.216Z,99.90
2022-09-17T00:59:52.762Z,99.90
2022-09-17T01:02:19.909Z,99.90
2022-09-17T01:04:47.107Z,99.90
2022-09-17T01:07:27.794Z,99.90
2022-09-17T01:09:59.787Z,99.90
2022-09-17T01:12:48.475Z,99.90
2022-09-17T01:15:24.592Z,99.90
2022-09-17T01:18:09.082Z,99.90
2022-09-17T01:21:09.663Z,99.90
2022-09-17T01:24:22.151Z,99.90
2022-09-17T01:27:05.820Z,99.90
2022-09-17T01:29:50.747Z,99.90
2022-09-17T01:32:26.762Z,99.90
2022-09-17T01:34:59.491Z,99.90
2022-09-17T01:37:33.545Z,99.90
2022-09-17T01:40:05.545Z,99.90
2022-09-17T01:42:39.987Z,99.90
2022-09-17T01:45:12.844Z,99.90
2022-09-17T01:47:47.603Z,99.90
2022-09-17T01:50:19.942Z,99.90
2022-09-17T01:52:50.463Z,99.90
2022-09-17T01:55:19.708Z,99.90
2022-09-17T01:57:51.304Z,99.90
2022-09-17T02:00:18.682Z,99.90
2022-09-17T02:02:48.896Z,99.90
2022-09-17T02:05:17.671Z,99.90
2022-09-17T02:07:46.545Z,99.90
2022-09-17T02:10:14.810Z,99.90
2022-09-17T02:12:44.613Z,99.90
2022-09-17T02:15:12.767Z,99.90
2022-09-17T02:17:42.735Z,99.90
2022-09-17T02:20:11.487Z,99.90
2022-09-17T02:22:41.644Z,99.90
2022-09-17T02:25:10.810Z,99.90
2022-09-17T02:27:42.985Z,99.90
2022-09-17T02:30:10.289Z,99.90
2022-09-17T02:32:37.511Z,99.90
2022-09-17T02:35:06.390Z,99.90
2022-09-17T02:37:35.210Z,99.90
2022-09-17T02:40:03.650Z,99.90
2022-09-17T02:42:37.391Z,99.90
2022-09-17T02:45:12.328Z,99.90
2022-09-17T02:47:58.196Z,99.90
2022-09-17T02:50:34.952Z,99.90
2022-09-17T02:53:14.964Z,99.90
2022-09-17T02:55:43.132Z,99.90
2022-09-17T02:58:14.304Z,99.90
2022-09-17T03:00:41.581Z,99.90
2022-09-17T03:03:10.375Z,99.90
2022-09-17T03:05:38.062Z,99.90
2022-09-17T03:08:07.739Z,99.90
2022-09-17T03:10:36.433Z,99.90
2022-09-17T03:13:04.098Z,99.90
2022-09-17T03:15:30.983Z,99.90
2022-09-17T03:17:58.043Z,99.90
2022-09-17T03:20:24.885Z,99.90
2022-09-17T03:22:52.174Z,99.90
2022-09-17T03:25:19.176Z,99.90
2022-09-17T03:27:48.303Z,99.90
2022-09-17T03:30:15.552Z,99.90
2022-09-17T03:32:42.403Z,99.90
2022-09-17T03:35:09.577Z,99.90
2022-09-17T03:37:36.624Z,99.90
2022-09-17T03:40:04.003Z,99.90
2022-09-17T03:42:31.153Z,99.90
2022-09-17T03:44:59.563Z,99.90
2022-09-17T03:47:26.573Z,99.90
2022-09-17T03:49:53.517Z,99.90
2022-09-17T03:52:20.623Z,99.90
2022-09-17T03:54:48.214Z,99.90
2022-09-17T03:57:15.460Z,99.90
2022-09-17T03:59:42.477Z,99.90
2022-09-17T04:02:11.019Z,99.90
2022-09-17T04:04:38.223Z,99.90
2022-09-17T04:07:05.399Z,99.90
2022-09-17T04:09:33.406Z,99.90
2022-09-17T04:12:02.984Z,99.90
2022-09-17T04:14:30.176Z,99.90
2022-09-17T04:16:58.513Z,99.90
2022-09-17T04:19:26.837Z,99.90
2022-09-17T04:21:53.879Z,99.90
2022-09-17T04:24:20.780Z,99.90
2022-09-17T04:26:47.707Z,99.90
2022-09-17T04:29:14.602Z,99.90
2022-09-17T04:31:41.525Z,99.90
2022-09-17T04:36:36.485Z,99.90
2022-09-17T04:39:03.832Z,99.90
2022-09-17T04:41:30.751Z,99.90
2022-09-17T04:43:57.698Z,99.90
2022-09-17T04:46:24.827Z,99.90
2022-09-17T04:48:51.928Z,99.90
2022-09-17T04:51:18.956Z,99.90
2022-09-17T04:53:47.842Z,99.90
2022-09-17T04:56:14.913Z,99.90
2022-09-17T04:58:42.052Z,99.90
2022-09-17T05:01:09.340Z,99.90
2022-09-17T05:03:36.431Z,99.90
2022-09-17T05:06:03.369Z,99.90
2022-09-17T05:08:30.490Z,99.90
2022-09-17T05:10:59.062Z,99.90
2022-09-17T05:13:26.397Z,99.90
2022-09-17T05:15:54.660Z,99.90
2022-09-17T05:18:22.139Z,99.90
2022-09-17T05:20:51.461Z,99.90
2022-09-17T05:23:18.550Z,99.90
2022-09-17T05:25:45.595Z,99.90
2022-09-17T05:28:14.090Z,99.90
2022-09-17T05:30:45.197Z,99.90
2022-09-17T05:33:12.062Z,99.90
2022-09-17T05:35:38.937Z,99.90
2022-09-17T05:38:07.540Z,99.90
2022-09-17T05:40:34.831Z,99.90
2022-09-17T05:43:03.646Z,99.90
2022-09-17T05:45:34.057Z,99.90
2022-09-17T05:48:03.063Z,99.90
2022-09-17T05:50:30.803Z,99.90
2022-09-17T05:53:03.002Z,99.90
2022-09-17T05:55:29.899Z,99.90
2022-09-17T05:57:57.142Z,99.90
2022-09-17T06:00:24.328Z,99.90
2022-09-17T06:02:57.870Z,99.90
2022-09-17T06:05:25.532Z,99.90
2022-09-17T06:07:52.669Z,99.90
2022-09-17T06:10:20.171Z,99.90
2022-09-17T06:12:47.318Z,98.50
2022-09-17T06:15:14.875Z,98.00
2022-09-17T06:17:42.221Z,97.50
2022-09-17T06:20:11.773Z,97.00
2022-09-17T06:22:39.220Z,96.50
2022-09-17T06:25:07.872Z,95.80
2022-09-17T06:27:35.264Z,95.40
2022-09-17T06:30:02.642Z,94.10
2022-09-17T06:32:29.945Z,93.10
2022-09-17T06:34:57.529Z,92.20
2022-09-17T06:37:29.730Z,91.10
2022-09-17T06:39:57.224Z,90.70
2022-09-17T06:42:24.504Z,88.30
2022-09-17T06:44:51.786Z,86.10
2022-09-17T06:47:19.087Z,82.70
2022-09-17T06:49:46.421Z,80.10
2022-09-17T06:52:13.489Z,77.20
2022-09-17T06:54:41.814Z,75.30
2022-09-17T06:57:09.015Z,75.60
2022-09-17T06:59:35.905Z,74.50
2022-09-17T07:02:03.150Z,73.10
2022-09-17T07:04:30.378Z,72.40
2022-09-17T07:06:57.444Z,72.60
2022-09-17T07:09:24.301Z,72.00
2022-09-17T07:11:52.801Z,74.10
2022-09-17T07:14:21.063Z,73.20
2022-09-17T07:16:48.153Z,74.10
2022-09-17T07:19:15.207Z,74.30
2022-09-17T07:21:42.383Z,73.00
2022-09-17T07:24:09.501Z,72.70
2022-09-17T07:26:36.541Z,73.10
2022-09-17T07:29:04.952Z,73.80
2022-09-17T07:31:32.050Z,74.90
2022-09-17T07:33:59.430Z,73.90
2022-09-17T07:36:26.623Z,75.50
2022-09-17T07:38:53.841Z,78.00
2022-09-17T07:41:20.968Z,79.70
2022-09-17T07:43:47.813Z,82.10
2022-09-17T07:46:18.134Z,83.80
2022-09-17T07:48:46.216Z,85.80
2022-09-17T07:51:16.747Z,86.30
2022-09-17T07:53:43.672Z,88.10
2022-09-17T07:56:11.991Z,86.70
2022-09-17T07:58:39.433Z,86.00
2022-09-17T08:01:08.232Z,86.60
2022-09-17T08:03:37.048Z,87.00
2022-09-17T08:06:04.294Z,87.30
2022-09-17T08:08:32.330Z,87.20
2022-09-17T08:11:03.145Z,84.50
2022-09-17T08:13:30.108Z,84.90
2022-09-17T08:16:00.413Z,83.30
2022-09-17T08:18:27.799Z,83.30
2022-09-17T08:20:58.633Z,81.10
2022-09-17T08:23:26.598Z,77.80
2022-09-17T08:25:54.115Z,73.70
2022-09-17T08:28:21.383Z,71.10
2022-09-17T08:30:49.881Z,72.10
2022-09-17T08:33:17.511Z,71.00
2022-09-17T08:35:51.545Z,73.50
2022-09-17T08:38:20.623Z,73.20
2022-09-17T08:40:52.484Z,70.90
2022-09-17T08:43:20.092Z,68.00
2022-09-17T08:45:53.383Z,67.40
2022-09-17T08:48:20.349Z,62.90
2022-09-17T08:50:47.828Z,65.80
2022-09-17T08:53:30.883Z,66.30
2022-09-17T08:56:02.817Z,69.60
2022-09-17T08:58:40.155Z,75.20
2022-09-17T09:01:16.604Z,77.40
2022-09-17T09:03:48.342Z,78.80
2022-09-17T09:06:17.339Z,83.70
2022-09-17T09:08:51.314Z,79.10
2022-09-17T09:11:22.198Z,76.70
2022-09-17T09:13:50.895Z,76.00
2022-09-17T09:16:20.570Z,74.20
2022-09-17T09:18:51.420Z,74.00
2022-09-17T09:21:26.928Z,69.80
2022-09-17T09:23:58.479Z,67.90
2022-09-17T09:26:41.005Z,65.40
2022-09-17T09:29:20.702Z,66.90
2022-09-17T09:32:15.572Z,64.50
2022-09-17T09:34:43.387Z,62.90
2022-09-17T09:37:13.929Z,62.50
2022-09-17T09:39:46.348Z,61.10
2022-09-17T09:42:19.598Z,61.30
2022-09-17T09:44:46.557Z,63.90
2022-09-17T09:47:25.147Z,63.40
2022-09-17T09:50:08.346Z,62.20
2022-09-17T09:52:50.231Z,63.80
2022-09-17T09:55:26.794Z,62.70
2022-09-17T09:57:55.881Z,63.50
2022-09-17T10:00:29.523Z,64.60
2022-09-17T10:03:04.293Z,66.20
2022-09-17T10:05:32.093Z,66.90
2022-09-17T10:07:59.571Z,67.20
2022-09-17T10:10:28.167Z,70.50
2022-09-17T10:13:06.617Z,68.00
2022-09-17T10:15:34.157Z,65.80
2022-09-17T10:18:13.833Z,68.70
2022-09-17T10:20:50.656Z,74.40
2022-09-17T10:23:18.866Z,72.30
2022-09-17T10:25:48.779Z,71.10
2022-09-17T10:28:30.981Z,72.50
2022-09-17T10:30:59.797Z,81.60
2022-09-17T10:33:29.919Z,88.30
2022-09-17T10:36:01.559Z,90.60
2022-09-17T10:38:34.743Z,94.40
2022-09-17T10:41:15.870Z,97.60
2022-09-17T10:43:43.960Z,99.50
2022-09-17T10:46:15.450Z,98.20
2022-09-17T10:48:44.304Z,93.80
2022-09-17T10:51:19.869Z,86.60
2022-09-17T10:54:24.740Z,83.40
2022-09-17T10:56:56.921Z,80.10
2022-09-17T10:59:59.638Z,74.80
2022-09-17T11:02:40.230Z,73.20
2022-09-17T11:05:32.497Z,72.10
2022-09-17T11:08:09.056Z,68.70
2022-09-17T11:10:41.957Z,73.00
2022-09-17T11:13:22.263Z,71.50
2022-09-17T11:16:06.530Z,70.40
2022-09-17T11:18:39.309Z,70.50
2022-09-17T11:21:11.398Z,70.20
2022-09-17T11:24:01.706Z,70.20
2022-09-17T11:26:35.619Z,70.10
2022-09-17T11:29:21.023Z,63.80
2022-09-17T11:31:58.029Z,63.80
2022-09-17T11:34:30.977Z,63.60
2022-09-17T11:37:05.819Z,62.20
2022-09-17T11:39:41.364Z,61.60
2022-09-17T11:42:14.878Z,61.10
2022-09-17T11:44:49.600Z,59.70
2022-09-17T11:47:21.900Z,59.10
2022-09-17T11:49:53.539Z,58.10
2022-09-17T11:52:24.393Z,63.80
2022-09-17T11:54:54.326Z,63.50
2022-09-17T11:57:25.654Z,64.20
2022-09-17T11:59:59.673Z,67.00
2022-09-17T12:02:34.215Z,67.10
2022-09-17T12:05:05.922Z,71.10
2022-09-17T12:07:43.704Z,71.90
2022-09-17T12:10:35.429Z,70.70
2022-09-17T12:13:06.999Z,69.40
2022-09-17T12:15:39.203Z,65.30
2022-09-17T12:18:32.322Z,65.10
2022-09-17T12:21:02.987Z,64.20
2022-09-17T12:23:40.781Z,65.30
2022-09-17T12:26:29.331Z,67.70
2022-09-17T12:29:04.757Z,70.50
2022-09-17T12:31:40.953Z,71.70
2022-09-17T12:34:26.228Z,73.30
2022-09-17T12:36:59.267Z,76.10
2022-09-17T12:39:52.588Z,76.70
2022-09-17T12:42:36.948Z,77.80
2022-09-17T12:45:21.764Z,80.60
2022-09-17T12:48:01.767Z,75.70
2022-09-17T12:50:44.553Z,73.90
2022-09-17T12:53:21.451Z,74.90
2022-09-17T12:56:03.820Z,72.10
2022-09-17T12:59:03.915Z,70.00
2022-09-17T13:01:36.361Z,68.60
2022-09-17T13:04:16.784Z,72.50
2022-09-17T13:06:56.665Z,75.90
2022-09-17T13:09:48.746Z,79.70
2022-09-17T13:12:25.339Z,82.60
2022-09-17T13:15:17.417Z,86.40
2022-09-17T13:17:52.347Z,90.50
2022-09-17T13:20:30.346Z,87.10
2022-09-17T13:22:58.160Z,81.50
2022-09-17T13:25:25.975Z,79.10
2022-09-17T13:28:04.660Z,77.10
2022-09-17T13:30:52.947Z,80.10
2022-09-17T13:33:34.743Z,80.60
2022-09-17T13:36:04.690Z,84.00
2022-09-17T13:38:41.006Z,83.00
2022-09-17T13:41:20.461Z,81.10
2022-09-17T13:43:47.970Z,79.10
2022-09-17T13:46:22.735Z,79.50
2022-09-17T13:48:58.515Z,78.50
2022-09-17T13:52:00.112Z,77.10
2022-09-17T13:54:38.695Z,77.60
2022-09-17T13:57:14.638Z,77.90
2022-09-17T13:59:56.748Z,78.00
2022-09-17T14:02:30.820Z,79.40
2022-09-17T14:05:34.061Z,82.70
2022-09-17T14:08:30.518Z,82.90
2022-09-17T14:11:22.288Z,79.70
2022-09-17T14:13:49.705Z,76.70
2022-09-17T14:16:36.787Z,74.40
2022-09-17T14:19:22.241Z,77.50
2022-09-17T14:22:01.655Z,77.20
2022-09-17T14:24:36.227Z,78.60
2022-09-17T14:27:43.672Z,79.60
2022-09-17T14:30:18.509Z,80.50
2022-09-17T14:33:03.920Z,81.50
2022-09-17T14:35:36.330Z,83.60
2022-09-17T14:38:05.832Z,85.40
2022-09-17T14:40:47.941Z,84.90
2022-09-17T14:43:21.172Z,84.60
2022-09-17T14:45:52.036Z,84.80
2022-09-17T14:48:27.235Z,82.60
2022-09-17T14:51:17.656Z,83.80
2022-09-17T14:53:45.381Z,84.80
2022-09-17T14:56:14.975Z,83.50
2022-09-17T14:58:43.431Z,81.70
2022-09-17T15:01:20.974Z,82.10
2022-09-17T15:03:48.163Z,81.60
2022-09-17T15:06:21.390Z,80.60
2022-09-17T15:08:48.932Z,82.90
2022-09-17T15:11:17.770Z,84.60
2022-09-17T15:13:50.555Z,85.80
2022-09-17T15:16:20.777Z,85.30
2022-09-17T15:18:53.045Z,85.40
2022-09-17T15:21:30.493Z,85.70
2022-09-17T15:24:02.644Z,83.40
2022-09-17T15:26:34.312Z,84.40
2022-09-17T15:29:02.412Z,82.00
2022-09-17T15:31:30.331Z,82.80
2022-09-17T15:33:59.053Z,80.20
2022-09-17T15:36:27.408Z,79.30
2022-09-17T15:38:54.378Z,79.40
2022-09-17T15:41:30.952Z,79.70
2022-09-17T15:44:29.035Z,79.50
2022-09-17T15:47:36.681Z,79.00
2022-09-17T15:50:15.655Z,78.80
2022-09-17T15:52:42.965Z,77.70
2022-09-17T15:55:31.076Z,77.00
2022-09-17T15:58:01.004Z,76.20
2022-09-17T16:00:28.210Z,76.90
2022-09-17T16:02:55.541Z,84.10
2022-09-17T16:05:37.363Z,86.20
2022-09-17T16:08:19.788Z,86.20
2022-09-17T16:10:46.970Z,87.00
2022-09-17T16:13:15.497Z,83.60
2022-09-17T16:15:42.843Z,83.40
2022-09-17T16:18:13.891Z,85.20
2022-09-17T16:20:41.177Z,85.20
2022-09-17T16:23:08.330Z,85.00
2022-09-17T16:25:36.556Z,84.50
2022-09-17T16:28:09.038Z,85.40
2022-09-17T16:30:39.626Z,84.60
2022-09-17T16:33:07.013Z,85.60
2022-09-17T16:35:34.375Z,83.80
2022-09-17T16:38:01.439Z,83.60
2022-09-17T16:40:28.741Z,84.00
2022-09-17T16:42:55.765Z,83.10
2022-09-17T16:45:26.660Z,83.40
2022-09-17T16:47:57.423Z,83.50
2022-09-17T16:50:24.459Z,82.90
2022-09-17T16:52:52.371Z,83.70
2022-09-17T16:55:20.036Z,84.10
2022-09-17T16:57:47.612Z,84.00
2022-09-17T17:00:17.099Z,83.40
2022-09-17T17:02:44.920Z,82.60
2022-09-17T17:05:14.330Z,81.00
2022-09-17T17:07:41.818Z,81.30
2022-09-17T17:10:10.022Z,81.00
2022-09-17T17:12:38.155Z,81.80
2022-09-17T17:15:12.419Z,80.90
2022-09-17T17:17:40.212Z,81.80
2022-09-17T17:20:13.740Z,82.90
2022-09-17T17:22:43.688Z,84.90
2022-09-17T17:25:19.475Z,86.60
2022-09-17T17:27:50.371Z,87.40
2022-09-17T17:30:18.324Z,89.30
2022-09-17T17:32:50.407Z,90.00
2022-09-17T17:35:48.035Z,90.70
2022-09-17T17:38:19.082Z,91.30
2022-09-17T17:40:46.390Z,91.50
2022-09-17T17:43:13.399Z,92.10
2022-09-17T17:45:40.390Z,92.60
2022-09-17T17:48:07.360Z,93.10
2022-09-17T17:50:35.205Z,93.60
2022-09-17T17:53:02.447Z,94.10
2022-09-17T17:55:31.137Z,94.60
2022-09-17T17:58:01.421Z,95.00
2022-09-17T18:00:29.343Z,95.00
2022-09-17T18:02:56.498Z,95.50
2022-09-17T18:05:24.250Z,95.90
2022-09-17T18:07:51.421Z,96.40
2022-09-17T18:10:19.751Z,97.10
2022-09-17T18:12:53.604Z,98.50
2022-09-17T18:15:21.068Z,99.40
2022-09-17T18:17:55.027Z,99.90
2022-09-17T18:20:36.002Z,99.90
2022-09-17T18:23:03.664Z,99.90
2022-09-17T18:25:31.928Z,99.90
2022-09-17T18:28:00.332Z,99.90
2022-09-17T18:30:27.808Z,99.90
2022-09-17T18:32:55.458Z,99.90
2022-09-17T18:35:23.414Z,99.90
2022-09-17T18:37:50.497Z,99.90
2022-09-17T18:40:18.159Z,99.90
2022-09-17T18:42:45.940Z,99.90
2022-09-17T18:45:14.903Z,99.90
2022-09-17T18:47:42.054Z,99.90
2022-09-17T18:50:09.513Z,99.90
2022-09-17T18:52:36.798Z,99.90
2022-09-17T18:55:03.797Z,99.90
2022-09-17T18:57:31.440Z,99.90
2022-09-17T19:00:00.111Z,99.90
2022-09-17T19:02:28.672Z,99.90
2022-09-17T19:04:55.752Z,99.90
2022-09-17T19:07:23.091Z,99.90
2022-09-17T19:09:49.999Z,99.90
2022-09-17T19:12:17.069Z,99.90
2022-09-17T19:14:44.901Z,99.90
2022-09-17T19:17:12.447Z,99.90
2022-09-17T19:19:41.291Z,99.90
2022-09-17T19:22:08.436Z,99.90
2022-09-17T19:24:39.829Z,99.90
2022-09-17T19:27:10.805Z,99.90
2022-09-17T19:29:37.811Z,99.90
2022-09-17T19:32:05.108Z,99.90
2022-09-17T19:34:34.892Z,99.90
2022-09-17T19:37:03.891Z,99.90
2022-09-17T19:39:30.820Z,99.90
2022-09-17T19:41:58.002Z,99.90
2022-09-17T19:44:25.309Z,99.90
2022-09-17T19:46:53.125Z,99.90
2022-09-17T19:49:20.388Z,99.90
2022-09-17T19:51:47.303Z,99.90
2022-09-17T19:54:15.638Z,99.90
2022-09-17T19:56:42.533Z,99.90
2022-09-17T19:59:09.756Z,99.90
2022-09-17T20:01:36.738Z,99.90
2022-09-17T20:04:03.743Z,99.90
2022-09-17T20:06:32.379Z,99.90
2022-09-17T20:08:59.503Z,99.90
2022-09-17T20:11:28.049Z,99.90
2022-09-17T20:13:58.829Z,99.90
2022-09-17T20:16:26.799Z,99.90
2022-09-17T20:18:54.128Z,99.90
2022-09-17T20:21:24.574Z,99.90
2022-09-17T20:23:52.180Z,99.90
2022-09-17T20:26:19.965Z,99.90
2022-09-17T20:28:50.330Z,99.90
2022-09-17T20:31:19.563Z,99.90
2022-09-17T20:33:47.043Z,99.90
2022-09-17T20:36:17.144Z,99.90
2022-09-17T20:41:35.057Z,99.90
2022-09-17T20:44:07.842Z,99.90
2022-09-17T20:46:38.611Z,99.90
2022-09-17T20:49:06.200Z,99.90
2022-09-17T20:51:33.896Z,99.90
2022-09-17T20:54:01.727Z,99.90
2022-09-17T20:56:31.694Z,99.90
2022-09-17T20:59:08.329Z,99.90
2022-09-17T21:01:50.233Z,99.90
2022-09-17T21:04:21.779Z,99.90
2022-09-17T21:06:56.949Z,99.90
2022-09-17T21:09:24.217Z,99.90
2022-09-17T21:11:51.252Z,99.90
2022-09-17T21:14:18.497Z,99.90
2022-09-17T21:16:46.980Z,99.90
2022-09-17T21:19:16.001Z,99.90
2022-09-17T21:21:43.287Z,99.90
2022-09-17T21:24:10.300Z,99.90
2022-09-17T21:26:37.442Z,99.90
2022-09-17T21:29:04.375Z,99.90
2022-09-17T21:31:33.091Z,99.90
2022-09-17T21:34:02.592Z,99.90
2022-09-17T21:36:32.239Z,99.90
2022-09-17T21:39:01.771Z,99.90
2022-09-17T21:41:29.238Z,99.90
2022-09-17T21:43:56.190Z,99.90
2022-09-17T21:46:23.906Z,99.90
2022-09-17T21:48:52.006Z,99.90
2022-09-17T21:51:21.215Z,99.90
2022-09-17T21:53:50.186Z,99.90
2022-09-17T21:56:17.599Z,99.90
2022-09-17T21:58:45.153Z,99.90
2022-09-17T22:01:14.278Z,99.90
2022-09-17T22:03:42.348Z,99.90
2022-09-17T22:06:12.733Z,99.90
2022-09-17T22:08:41.616Z,99.90
2022-09-17T22:11:11.732Z,99.90
2022-09-17T22:13:39.722Z,99.90
2022-09-17T22:16:09.163Z,99.90
2022-09-17T22:18:37.727Z,99.90
2022-09-17T22:21:11.808Z,99.90
2022-09-17T22:23:38.873Z,99.90
2022-09-17T22:26:07.526Z,99.90
2022-09-17T22:28:35.432Z,99.90
2022-09-17T22:31:02.971Z,99.90
2022-09-17T22:33:31.699Z,99.90
2022-09-17T22:36:01.661Z,99.90
2022-09-17T22:38:28.716Z,99.90
2022-09-17T22:40:55.666Z,99.90
2022-09-17T22:43:23.867Z,99.90
2022-09-17T22:45:50.784Z,99.90
2022-09-17T22:48:17.711Z,99.90
2022-09-17T22:50:48.759Z,99.90
2022-09-17T22:53:15.604Z,99.90
2022-09-17T22:55:42.502Z,99.90
2022-09-17T22:58:09.709Z,99.90
2022-09-17T23:00:38.096Z,99.90
2022-09-17T23:03:05.403Z,99.90
2022-09-17T23:05:32.527Z,99.90
2022-09-17T23:07:59.375Z,99.90
2022-09-17T23:10:27.012Z,99.90
2022-09-17T23:12:53.936Z,99.90
2022-09-17T23:15:26.274Z,99.90
2022-09-17T23:17:54.704Z,99.90
2022-09-17T23:20:21.574Z,99.90
2022-09-17T23:22:48.580Z,99.90
2022-09-17T23:25:15.770Z,99.90
2022-09-17T23:27:42.849Z,99.90
2022-09-17T23:30:11.396Z,99.90
2022-09-17T23:32:38.363Z,99.90
2022-09-17T23:35:08.425Z,99.90
2022-09-17T23:37:35.771Z,99.90
2022-09-17T23:40:02.865Z,99.90
2022-09-17T23:42:34.062Z,99.90
2022-09-17T23:45:01.112Z,99.90
2022-09-17T23:47:28.607Z,99.90
2022-09-17T23:49:55.940Z,99.90
2022-09-17T23:52:24.389Z,99.90
2022-09-17T23:54:55.251Z,99.90
2022-09-17T23:57:25.545Z,99.90
2022-09-17T23:59:52.668Z,99.90
